Time;durP1;ratioP1;P1;durP2;ratioP2;P2;SDS_P1;SDS_P2;PMS_P1;PMS_P2;Temp;Humidity;BMP_temperature;BMP_pressure;BME280_temperature;BME280_humidity;BME280_pressure;Samples;Min_cycle;Max_cycle;Signal;HPM_P1;HPM_P2
2023/09/02 00:00:20;;;;;;;547.23;201.77;;;12.80;99.90;;;;;;4904994;29;20082;-87
2023/09/02 00:02:48;;;;;;;544.40;200.77;;;12.70;99.90;;;;;;4890481;29;20827;-86
2023/09/02 00:05:14;;;;;;;545.60;202.93;;;12.70;99.90;;;;;;4900068;29;20332;-88
2023/09/02 00:07:46;;;;;;;551.00;201.90;;;12.70;99.90;;;;;;4924182;29;20036;-88
2023/09/02 00:10:12;;;;;;;549.37;200.47;;;12.60;99.90;;;;;;4924722;29;20307;-88
2023/09/02 00:12:38;;;;;;;554.20;201.47;;;12.60;99.90;;;;;;4909247;29;20316;-86
2023/09/02 00:15:14;;;;;;;531.00;201.43;;;12.60;99.90;;;;;;4902705;29;20311;-88
2023/09/02 00:17:40;;;;;;;543.77;200.23;;;12.60;99.90;;;;;;4900949;29;20062;-88
2023/09/02 00:20:08;;;;;;;521.03;199.63;;;12.50;99.90;;;;;;4913174;29;20304;-87
2023/09/02 00:22:37;;;;;;;522.70;201.10;;;12.50;99.90;;;;;;4895846;29;20079;-85
2023/09/02 00:25:11;;;;;;;513.43;198.40;;;12.50;99.90;;;;;;4891975;29;20304;-87
2023/09/02 00:27:40;;;;;;;518.73;198.17;;;12.50;99.90;;;;;;4906096;29;20319;-88
2023/09/02 00:30:06;;;;;;;516.47;197.63;;;12.40;99.90;;;;;;4911867;29;20311;-87
2023/09/02 00:32:35;;;;;;;504.20;196.23;;;12.40;99.90;;;;;;4901924;29;20320;-86
2023/09/02 00:35:00;;;;;;;519.53;198.73;;;12.40;99.90;;;;;;4895319;29;20307;-87
2023/09/02 00:37:52;;;;;;;508.87;195.97;;;12.30;99.90;;;;;;4898468;29;20312;-88
2023/09/02 00:40:27;;;;;;;511.50;197.87;;;12.30;99.90;;;;;;4896732;29;20385;-87
2023/09/02 00:42:57;;;;;;;514.17;198.07;;;12.30;99.90;;;;;;4904314;29;20867;-87
2023/09/02 00:45:24;;;;;;;511.53;197.67;;;12.20;99.90;;;;;;4890395;29;20308;-87
2023/09/02 00:47:59;;;;;;;511.10;197.40;;;12.20;99.90;;;;;;4887223;29;20832;-89
2023/09/02 00:50:33;;;;;;;500.23;198.23;;;12.20;99.90;;;;;;4888196;29;20363;-87
2023/09/02 00:53:02;;;;;;;494.30;196.43;;;12.20;99.90;;;;;;4897267;29;20868;-86
2023/09/02 00:55:33;;;;;;;511.03;196.93;;;12.10;99.90;;;;;;4887183;29;20344;-87
2023/09/02 00:58:03;;;;;;;514.33;198.97;;;12.20;99.90;;;;;;4908425;29;20340;-87
2023/09/02 01:00:34;;;;;;;506.40;198.37;;;12.20;99.90;;;;;;4918846;29;20866;-86
2023/09/02 01:03:00;;;;;;;508.97;197.30;;;12.10;99.90;;;;;;4900647;29;20347;-87
2023/09/02 01:05:29;;;;;;;510.67;197.17;;;12.10;99.90;;;;;;4917329;29;20371;-87
2023/09/02 01:07:58;;;;;;;508.37;198.50;;;12.10;99.90;;;;;;4918185;29;20332;-87
2023/09/02 01:10:27;;;;;;;512.67;199.57;;;12.30;99.90;;;;;;4900872;29;20304;-87
2023/09/02 01:12:56;;;;;;;504.87;197.93;;;12.00;99.90;;;;;;4909536;29;20312;-86
2023/09/02 01:15:26;;;;;;;501.93;196.10;;;12.00;99.90;;;;;;4918604;29;20293;-88
2023/09/02 01:17:52;;;;;;;489.50;195.33;;;12.00;99.90;;;;;;4917080;29;20323;-88
2023/09/02 01:20:26;;;;;;;487.90;194.27;;;12.00;99.90;;;;;;4911780;29;20666;-87
2023/09/02 01:23:36;;;;;;;488.60;194.73;;;11.90;99.90;;;;;;4914841;29;20046;-88
2023/09/02 01:26:13;;;;;;;487.10;195.87;;;11.90;99.90;;;;;;4885943;29;20367;-90
2023/09/02 01:29:15;;;;;;;493.70;196.50;;;11.90;99.90;;;;;;4919591;29;20319;-90
2023/09/02 01:31:46;;;;;;;498.70;196.90;;;11.90;99.90;;;;;;4916787;29;20288;-88
2023/09/02 01:34:47;;;;;;;500.37;195.53;;;11.90;99.90;;;;;;4902285;29;20308;-88
2023/09/02 01:37:32;;;;;;;490.63;196.37;;;11.90;99.90;;;;;;4916849;29;20318;-87
2023/09/02 01:40:05;;;;;;;492.77;196.50;;;11.80;99.90;;;;;;4901425;29;20308;-87
2023/09/02 01:42:40;;;;;;;486.03;195.60;;;11.90;99.90;;;;;;4898454;29;20337;-87
2023/09/02 01:45:15;;;;;;;481.47;195.33;;;11.70;99.90;;;;;;4902090;29;20359;-87
2023/09/02 01:47:42;;;;;;;479.10;193.20;;;11.80;99.90;;;;;;4902629;29;20319;-86
2023/09/02 01:50:14;;;;;;;487.43;194.43;;;11.80;99.90;;;;;;4914020;29;20316;-87
2023/09/02 01:52:43;;;;;;;493.67;195.73;;;11.80;99.90;;;;;;4900900;29;20887;-87
2023/09/02 01:55:10;;;;;;;492.13;197.43;;;11.80;99.90;;;;;;4916106;29;20316;-88
2023/09/02 01:57:36;;;;;;;493.17;195.20;;;11.70;99.90;;;;;;4917917;29;20410;-86
2023/09/02 02:00:11;;;;;;;496.38;195.15;;;11.70;99.90;;;;;;4916583;29;20304;-87
2023/09/02 02:02:38;;;;;;;490.10;195.20;;;11.70;99.90;;;;;;4915909;29;20044;-87
2023/09/02 02:05:11;;;;;;;485.70;195.20;;;11.70;99.90;;;;;;4916359;29;20308;-87
2023/09/02 02:08:04;;;;;;;487.63;193.37;;;11.80;99.90;;;;;;4917269;29;20304;-87
2023/09/02 02:10:32;;;;;;;485.10;193.50;;;11.70;99.90;;;;;;4884156;29;20338;-87
2023/09/02 02:13:02;;;;;;;485.70;195.97;;;11.70;99.90;;;;;;4898995;29;20719;-87
2023/09/02 02:15:30;;;;;;;482.70;195.00;;;11.70;99.90;;;;;;4899207;29;20368;-87
2023/09/02 02:18:05;;;;;;;488.43;194.93;;;11.60;99.90;;;;;;4900669;29;20709;-87
2023/09/02 02:21:02;;;;;;;495.27;194.77;;;11.60;99.90;;;;;;4901468;29;20300;-87
2023/09/02 02:23:33;;;;;;;500.43;194.43;;;11.60;99.90;;;;;;4889543;29;20798;-87
2023/09/02 02:26:09;;;;;;;502.83;194.90;;;11.70;99.90;;;;;;4900654;29;20358;-87
2023/09/02 02:28:38;;;;;;;510.27;196.60;;;11.60;99.90;;;;;;4899987;29;20300;-89
2023/09/02 02:31:10;;;;;;;502.47;195.50;;;11.60;99.90;;;;;;4896117;29;20292;-88
2023/09/02 02:33:59;;;;;;;506.80;196.20;;;11.60;99.90;;;;;;4914253;29;20056;-88
2023/09/02 02:36:33;;;;;;;507.07;197.03;;;11.70;99.90;;;;;;4897574;29;20316;-87
2023/09/02 02:39:04;;;;;;;503.50;195.63;;;11.60;99.90;;;;;;4901683;29;20415;-88
2023/09/02 02:41:31;;;;;;;504.63;195.47;;;11.60;99.90;;;;;;4884693;29;20748;-89
2023/09/02 02:44:04;;;;;;;499.93;196.00;;;11.70;99.90;;;;;;4899641;29;20375;-89
2023/09/02 02:46:30;;;;;;;500.03;195.50;;;11.50;99.90;;;;;;4894987;29;20328;-89
2023/09/02 02:48:59;;;;;;;502.27;195.30;;;11.50;99.90;;;;;;4886367;29;20709;-89
2023/09/02 02:51:30;;;;;;;501.43;195.73;;;11.50;99.90;;;;;;4898893;29;20336;-90
2023/09/02 02:53:59;;;;;;;496.60;193.70;;;11.50;99.90;;;;;;4900215;29;20332;-90
2023/09/02 02:56:30;;;;;;;496.17;192.77;;;11.40;99.90;;;;;;4886539;29;20308;-89
2023/09/02 02:58:59;;;;;;;538.77;199.77;;;11.40;99.90;;;;;;4897535;29;20315;-89
2023/09/02 03:01:31;;;;;;;537.23;199.07;;;11.40;99.90;;;;;;4915799;29;20308;-88
2023/09/02 03:04:06;;;;;;;530.67;199.03;;;11.40;99.90;;;;;;4891846;29;20044;-90
2023/09/02 03:06:35;;;;;;;525.90;198.55;;;12.20;99.90;;;;;;4915294;29;20320;-88
2023/09/02 03:09:05;;;;;;;526.17;198.97;;;11.40;99.90;;;;;;4914840;29;20442;-90
2023/09/02 03:11:36;;;;;;;522.03;197.80;;;11.40;99.90;;;;;;4912443;29;20372;-90
2023/09/02 03:14:39;;;;;;;526.60;199.40;;;11.30;99.90;;;;;;4911176;29;20318;-88
2023/09/02 03:17:08;;;;;;;524.10;199.95;;;11.40;99.90;;;;;;4928680;29;20304;-88
2023/09/02 03:19:49;;;;;;;517.37;197.67;;;11.30;99.90;;;;;;4914050;29;20039;-87
2023/09/02 03:22:20;;;;;;;520.67;197.10;;;11.30;99.90;;;;;;4917331;29;20322;-89
2023/09/02 03:24:46;;;;;;;523.87;196.63;;;11.30;99.90;;;;;;4916097;29;20379;-88
2023/09/02 03:27:16;;;;;;;524.67;197.87;;;11.30;99.90;;;;;;4900759;29;20335;-88
2023/09/02 03:29:59;;;;;;;525.90;197.00;;;11.30;99.90;;;;;;4916669;29;20131;-90
2023/09/02 03:32:26;;;;;;;527.90;197.63;;;11.20;99.90;;;;;;4916344;29;20292;-87
2023/09/02 03:35:01;;;;;;;527.70;198.27;;;11.20;99.90;;;;;;4917651;29;20300;-87
2023/09/02 03:37:35;;;;;;;527.77;198.53;;;11.30;99.90;;;;;;4915980;29;20355;-90
2023/09/02 03:40:03;;;;;;;528.43;199.33;;;11.20;99.90;;;;;;4915721;29;20288;-88
2023/09/02 03:42:34;;;;;;;524.57;198.13;;;11.20;99.90;;;;;;4900479;29;20623;-88
2023/09/02 03:45:13;;;;;;;522.87;197.67;;;11.30;99.90;;;;;;4915279;29;20312;-88
2023/09/02 03:47:45;;;;;;;503.43;197.47;;;11.20;99.90;;;;;;4915893;29;20375;-89
2023/09/02 03:50:25;;;;;;;526.23;198.20;;;11.20;99.90;;;;;;4900441;29;20308;-88
2023/09/02 03:52:56;;;;;;;523.00;198.20;;;11.20;99.90;;;;;;4915498;29;20279;-90
2023/09/02 03:55:34;;;;;;;526.80;197.67;;;11.10;99.90;;;;;;4915194;29;20316;-88
2023/09/02 03:58:06;;;;;;;523.40;197.45;;;11.20;99.90;;;;;;4912225;29;20313;-89
2023/09/02 04:00:37;;;;;;;518.67;196.73;;;11.10;99.90;;;;;;4904631;29;20052;-89
2023/09/02 04:03:08;;;;;;;522.97;199.23;;;11.20;99.90;;;;;;4899873;29;20295;-89
2023/09/02 04:06:04;;;;;;;524.27;198.30;;;11.10;99.90;;;;;;4915017;29;20348;-91
2023/09/02 04:12:35;;;;;;;528.77;198.33;;;11.10;99.90;;;;;;4869655;29;20317;-89
2023/09/02 04:15:26;;;;;;;527.43;198.23;;;11.10;99.90;;;;;;4875430;29;20365;-88
2023/09/02 04:18:18;;;;;;;524.23;198.53;;;11.10;99.90;;;;;;4859860;29;20922;-88
2023/09/02 04:20:54;;;;;;;523.33;197.27;;;11.10;99.90;;;;;;4879225;29;20783;-88
2023/09/02 04:23:30;;;;;;;524.83;198.60;;;11.10;99.90;;;;;;4863520;29;20057;-88
2023/09/02 04:26:05;;;;;;;524.07;198.77;;;11.10;99.90;;;;;;4878673;29;20317;-88
2023/09/02 04:29:02;;;;;;;519.53;198.23;;;11.10;99.90;;;;;;4878626;29;20297;-88
2023/09/02 04:31:39;;;;;;;;;;;;;;;;;;;;;
2023/09/02 04:34:16;;;;;;;528.07;198.80;;;11.30;99.90;;;;;;4883076;29;20390;-86
2023/09/02 04:37:01;;;;;;;527.60;199.10;;;11.00;99.90;;;;;;4879729;29;20305;-88
2023/09/02 04:39:42;;;;;;;500.20;194.88;;;11.00;99.90;;;;;;4830180;29;20298;-88
2023/09/02 04:42:57;;;;;;;;;;;;;;;;;;;;;
2023/09/02 04:45:58;;;;;;;;;;;;;;;;;;;;;
2023/09/02 04:48:35;;;;;;;526.13;198.50;;;10.80;99.90;;;;;;4869673;29;20312;-89
2023/09/02 04:51:14;;;;;;;509.90;195.13;;;11.10;99.90;;;;;;4915387;29;20689;-89
2023/09/02 04:54:32;;;;;;;536.20;198.40;;;11.00;99.90;;;;;;4900551;29;20713;-89
2023/09/02 04:59:52;;;;;;;530.63;198.10;;;11.00;99.90;;;;;;4893802;29;20649;-91
2023/09/02 05:02:22;;;;;;;525.87;196.77;;;11.10;99.90;;;;;;4898666;29;20355;-89
2023/09/02 05:04:57;;;;;;;528.87;199.27;;;11.00;99.90;;;;;;4882989;29;20320;-88
2023/09/02 05:07:29;;;;;;;529.73;198.83;;;11.00;99.90;;;;;;4899375;29;20303;-88
2023/09/02 05:09:54;;;;;;;528.43;198.67;;;11.10;99.90;;;;;;4899445;29;20308;-88
2023/09/02 05:12:36;;;;;;;528.23;198.40;;;11.00;99.90;;;;;;4885157;29;20336;-88
2023/09/02 05:15:17;;;;;;;526.83;198.53;;;11.00;99.90;;;;;;4916676;29;20816;-88
2023/09/02 05:17:46;;;;;;;525.77;197.40;;;10.90;99.90;;;;;;4868266;29;20479;-87
2023/09/02 05:20:24;;;;;;;530.37;198.97;;;10.90;99.90;;;;;;4884216;29;20321;-88
2023/09/02 05:23:02;;;;;;;524.43;197.77;;;10.90;99.90;;;;;;4902177;29;20315;-88
2023/09/02 05:25:30;;;;;;;521.33;197.97;;;10.90;99.90;;;;;;4895866;29;20312;-88
2023/09/02 05:28:01;;;;;;;524.93;199.30;;;10.90;99.90;;;;;;4901540;29;20311;-88
2023/09/02 05:30:39;;;;;;;521.17;198.03;;;11.00;99.90;;;;;;4886994;29;20304;-88
2023/09/02 05:33:16;;;;;;;518.03;198.80;;;11.00;99.90;;;;;;4900857;29;20335;-89
2023/09/02 05:35:48;;;;;;;511.00;196.43;;;11.00;99.90;;;;;;4897845;29;20300;-89
2023/09/02 05:38:17;;;;;;;516.33;198.17;;;11.00;99.90;;;;;;4917651;29;20296;-88
2023/09/02 05:40:46;;;;;;;514.20;196.77;;;11.10;99.90;;;;;;4918698;29;20347;-88
2023/09/02 05:43:23;;;;;;;;;;;;;;;;;;;;;
2023/09/02 05:45:58;;;;;;;511.70;196.13;;;11.10;99.90;;;;;;4901090;29;20411;-88
2023/09/02 05:48:34;;;;;;;;;;;;;;;;;;;;;
2023/09/02 05:51:03;;;;;;;507.93;196.13;;;11.20;99.90;;;;;;4917693;29;20300;-88
2023/09/02 05:53:34;;;;;;;502.97;196.93;;;11.20;99.90;;;;;;4885821;29;20685;-88
2023/09/02 05:59:09;;;;;;;506.17;196.37;;;11.30;99.90;;;;;;4894609;29;20336;-90
2023/09/02 06:01:56;;;;;;;510.90;197.70;;;11.30;99.90;;;;;;4869183;29;20352;-92
2023/09/02 06:10:26;;;;;;;;;;;;;;;;;;;;;
2023/09/02 06:14:51;;;;;;;;;;;;;;;;;;;;;
2023/09/02 07:02:13;;;;;;;535.23;198.03;;;14.50;99.90;;;;;;4921788;29;20651;-86
2023/09/02 07:04:39;;;;;;;558.23;198.83;;;14.50;99.90;;;;;;4954994;29;20385;-86
2023/09/02 07:07:05;;;;;;;556.70;198.17;;;14.80;99.90;;;;;;4952133;29;20317;-84
2023/09/02 07:09:44;;;;;;;574.83;201.70;;;14.80;99.90;;;;;;4953811;29;20031;-87
2023/09/02 07:12:12;;;;;;;567.90;201.17;;;15.20;99.90;;;;;;4949847;29;20287;-83
2023/09/02 07:14:38;;;;;;;580.83;201.43;;;15.10;99.90;;;;;;4946345;29;20317;-84
2023/09/02 07:17:04;;;;;;;627.07;206.13;;;15.30;99.90;;;;;;4949826;29;20042;-86
2023/09/02 07:19:30;;;;;;;648.87;207.53;;;15.40;99.90;;;;;;4954207;29;20460;-84
2023/09/02 07:21:59;;;;;;;644.20;206.73;;;15.50;99.90;;;;;;4937514;29;20059;-86
2023/09/02 07:24:25;;;;;;;652.80;206.47;;;15.60;99.90;;;;;;4938174;29;20488;-86
2023/09/02 07:26:51;;;;;;;658.07;207.73;;;15.80;99.90;;;;;;4922860;29;20656;-84
2023/09/02 07:29:20;;;;;;;666.87;208.37;;;16.00;99.90;;;;;;4937506;29;20309;-86
2023/09/02 07:31:45;;;;;;;676.20;208.83;;;16.00;99.90;;;;;;4915262;29;20127;-84
2023/09/02 07:34:11;;;;;;;681.37;210.57;;;16.20;99.90;;;;;;4936314;29;20358;-84
2023/09/02 07:36:37;;;;;;;679.50;209.30;;;16.30;99.90;;;;;;4953659;29;20047;-85
2023/09/02 07:39:03;;;;;;;684.27;210.70;;;16.40;99.90;;;;;;4937865;29;20134;-85
2023/09/02 07:41:30;;;;;;;664.17;209.73;;;16.60;99.90;;;;;;4952661;29;20054;-85
2023/09/02 07:43:59;;;;;;;648.80;208.93;;;16.80;99.90;;;;;;4948759;29;20338;-85
2023/09/02 07:46:25;;;;;;;651.73;209.80;;;16.90;99.90;;;;;;4937769;29;20334;-86
2023/09/02 07:48:53;;;;;;;640.47;206.90;;;17.10;99.90;;;;;;4954875;29;20709;-85
2023/09/02 07:51:18;;;;;;;684.77;213.50;;;17.30;99.90;;;;;;4937586;29;20039;-85
2023/09/02 07:53:45;;;;;;;696.10;211.47;;;17.40;99.90;;;;;;4953210;29;20309;-85
2023/09/02 07:56:11;;;;;;;737.80;217.00;;;17.60;99.90;;;;;;4953350;29;20138;-85
2023/09/02 07:58:37;;;;;;;719.63;215.53;;;17.60;99.90;;;;;;4936718;29;20374;-84
2023/09/02 08:01:03;;;;;;;725.03;216.20;;;17.80;99.90;;;;;;4954932;28;20039;-85
2023/09/02 08:03:29;;;;;;;727.43;217.13;;;17.90;99.90;;;;;;4937248;29;20059;-85
2023/09/02 08:05:55;;;;;;;714.77;212.93;;;18.10;99.90;;;;;;4937543;29;20045;-85
2023/09/02 08:08:21;;;;;;;722.53;214.63;;;18.20;99.90;;;;;;4954058;29;20374;-85
2023/09/02 08:10:47;;;;;;;731.40;216.37;;;18.20;99.90;;;;;;4953609;29;20336;-86
2023/09/02 08:13:13;;;;;;;745.50;214.80;;;18.40;99.90;;;;;;4937252;29;20378;-85
2023/09/02 08:15:41;;;;;;;748.97;218.20;;;18.50;99.90;;;;;;4921088;29;20385;-85
2023/09/02 08:18:09;;;;;;;739.33;214.17;;;18.60;99.90;;;;;;4953023;29;20047;-89
2023/09/02 08:21:21;;;;;;;755.53;214.67;;;18.70;99.90;;;;;;4954091;29;20293;-91
2023/09/02 08:27:53;;;;;;;755.50;219.37;;;19.00;99.90;;;;;;4769553;30;20290;-88
2023/09/02 08:30:53;;;;;;;758.83;217.23;;;19.10;99.90;;;;;;4755156;30;20309;-88
2023/09/02 08:36:43;;;;;;;763.40;218.47;;;19.40;99.90;;;;;;4660126;27;15119948;-85
2023/09/02 08:43:20;;;;;;;792.13;227.43;;;19.70;99.90;;;;;;5068240;22;20048;-93
2023/09/02 08:46:07;;;;;;;811.03;219.80;;;19.90;99.90;;;;;;5055193;28;20315;-85
2023/09/02 08:52:56;;;;;;;810.57;221.37;;;20.20;99.90;;;;;;5069850;28;20047;-88
2023/09/02 08:56:03;;;;;;;805.00;221.73;;;20.30;99.90;;;;;;5035656;28;20051;-89
2023/09/02 08:58:32;;;;;;;793.00;440.97;;;20.40;99.90;;;;;;5006109;28;20323;-88
2023/09/02 09:01:02;;;;;;;833.03;380.43;;;20.50;99.90;;;;;;5011377;28;20065;-89
2023/09/02 09:03:34;;;;;;;821.63;366.03;;;20.40;99.90;;;;;;4992487;28;20054;-88
2023/09/02 09:06:08;;;;;;;798.60;456.00;;;20.50;99.90;;;;;;4992409;28;20489;-91
2023/09/02 09:08:54;;;;;;;841.20;388.27;;;20.70;99.90;;;;;;4986406;28;20060;-90
2023/09/02 09:11:22;;;;;;;829.27;337.03;;;20.70;99.90;;;;;;5027122;28;20042;-86
2023/09/02 09:13:49;;;;;;;818.77;290.13;;;20.80;99.90;;;;;;4999878;28;20049;-88
2023/09/02 09:16:31;;;;;;;802.70;367.70;;;20.90;99.90;;;;;;5010970;28;20054;-88
2023/09/02 09:19:18;;;;;;;815.27;291.83;;;21.00;99.90;;;;;;4968396;28;20536;-89
2023/09/02 09:21:44;;;;;;;788.97;342.10;;;21.10;99.90;;;;;;4952115;28;20062;-85
2023/09/02 09:24:13;;;;;;;757.27;215.50;;;21.20;99.90;;;;;;4952269;28;20063;-87
2023/09/02 09:26:42;;;;;;;811.40;277.80;;;21.30;99.90;;;;;;4951992;28;20043;-86
2023/09/02 09:29:15;;;;;;;786.03;287.03;;;21.30;99.90;;;;;;4935821;28;20134;-86
2023/09/02 09:31:43;;;;;;;795.20;234.23;;;21.30;99.90;;;;;;4967739;28;20141;-85
2023/09/02 09:34:13;;;;;;;798.80;226.43;;;21.50;99.90;;;;;;4968300;28;20141;-86
2023/09/02 09:36:43;;;;;;;806.13;215.53;;;21.50;99.90;;;;;;5026009;28;20062;-87
2023/09/02 09:39:09;;;;;;;797.17;211.97;;;21.70;99.90;;;;;;4993842;28;20387;-89
2023/09/02 09:41:44;;;;;;;856.97;474.13;;;21.80;99.90;;;;;;5009531;28;20052;-87
2023/09/02 09:45:18;;;;;;;826.47;530.10;;;21.80;99.90;;;;;;5010187;28;20046;-91
2023/09/02 09:47:48;;;;;;;893.63;521.70;;;21.80;99.90;;;;;;4979807;28;20047;-88
2023/09/02 09:50:24;;;;;;;850.60;553.13;;;21.80;99.90;;;;;;4988174;28;20042;-88
2023/09/02 09:53:05;;;;;;;848.97;549.47;;;22.00;99.90;;;;;;4995024;28;20046;-91
2023/09/02 09:55:33;;;;;;;859.93;550.17;;;22.20;99.90;;;;;;4962368;28;20054;-86
2023/09/02 09:57:59;;;;;;;897.17;529.30;;;22.20;99.90;;;;;;4976228;28;20057;-87
2023/09/02 10:00:27;;;;;;;884.17;512.97;;;22.30;99.90;;;;;;4958946;28;20047;-86
2023/09/02 10:02:54;;;;;;;895.20;511.23;;;22.30;99.90;;;;;;4976698;28;20039;-87
2023/09/02 10:05:28;;;;;;;897.57;508.87;;;22.50;99.90;;;;;;4959170;28;20043;-89
2023/09/02 10:08:17;;;;;;;853.97;541.40;;;22.60;99.90;;;;;;4976685;28;20078;-89
2023/09/02 10:10:43;;;;;;;911.17;542.17;;;22.70;99.90;;;;;;4962990;28;20081;-83
2023/09/02 10:13:09;;;;;;;910.97;540.50;;;22.50;99.90;;;;;;4963214;28;20211;-88
2023/09/02 10:15:35;;;;;;;906.20;500.47;;;22.50;99.90;;;;;;4996301;28;20053;-85
2023/09/02 10:18:03;;;;;;;915.43;523.30;;;22.60;99.90;;;;;;4962385;28;20088;-86
2023/09/02 10:20:36;;;;;;;858.47;512.43;;;22.80;99.90;;;;;;4978212;28;20042;-86
2023/09/02 10:23:09;;;;;;;846.47;497.33;;;23.00;99.90;;;;;;4981190;28;20054;-84
2023/09/02 10:26:05;;;;;;;830.10;445.50;;;23.10;99.90;;;;;;4995611;28;20046;-84
2023/09/02 10:28:38;;;;;;;843.30;302.70;;;23.40;99.90;;;;;;4978002;28;20054;-84
2023/09/02 10:31:16;;;;;;;857.40;376.17;;;23.40;99.90;;;;;;4978186;28;20407;-84
2023/09/02 10:33:45;;;;;;;829.10;394.57;;;23.50;99.90;;;;;;4978021;28;20050;-84
2023/09/02 10:36:16;;;;;;;825.87;415.47;;;23.60;99.90;;;;;;4995039;28;20050;-84
2023/09/02 10:38:47;;;;;;;810.50;223.77;;;23.70;99.90;;;;;;4977754;28;20042;-84
2023/09/02 10:41:15;;;;;;;675.80;223.17;;;23.90;99.90;;;;;;4977627;28;20050;-85
2023/09/02 10:43:42;;;;;;;768.50;223.67;;;23.80;99.90;;;;;;4977703;28;20046;-84
2023/09/02 10:46:08;;;;;;;853.93;225.47;;;23.80;99.90;;;;;;4977597;28;20050;-85
2023/09/02 10:48:38;;;;;;;845.90;242.33;;;23.80;99.90;;;;;;4995317;28;20047;-85
2023/09/02 10:51:08;;;;;;;846.77;265.93;;;23.30;99.90;;;;;;4995002;28;20198;-85
2023/09/02 10:53:52;;;;;;;865.70;225.70;;;23.10;99.90;;;;;;4994815;28;20442;-85
2023/09/02 10:56:44;;;;;;;863.83;223.23;;;23.10;99.90;;;;;;4977312;28;20057;-86
2023/09/02 10:59:09;;;;;;;835.60;256.00;;;23.20;99.90;;;;;;4972679;28;20089;-85
2023/09/02 11:01:45;;;;;;;847.23;309.23;;;23.30;99.90;;;;;;4994906;28;20069;-87
2023/09/02 11:04:12;;;;;;;854.53;353.13;;;23.40;99.90;;;;;;4977232;28;20053;-87
2023/09/02 11:06:57;;;;;;;868.17;401.03;;;23.60;99.90;;;;;;4977207;28;20046;-87
2023/09/02 11:09:49;;;;;;;826.87;347.10;;;23.70;99.90;;;;;;4977283;28;20046;-86
2023/09/02 11:12:15;;;;;;;836.27;378.03;;;23.90;99.90;;;;;;4915584;29;20489;-86
2023/09/02 11:14:40;;;;;;;864.17;397.87;;;23.90;99.90;;;;;;4899641;29;20075;-86
2023/09/02 11:17:26;;;;;;;831.30;348.97;;;24.00;99.90;;;;;;4915607;29;20406;-88
2023/09/02 11:19:59;;;;;;;856.63;229.35;;;24.00;99.90;;;;;;4899502;29;20079;-88
2023/09/02 11:23:08;;;;;;;816.47;228.80;;;23.80;99.90;;;;;;4900018;29;20048;-87
2023/09/02 11:25:39;;;;;;;830.17;224.03;;;23.50;99.90;;;;;;4825736;29;20455;-89
2023/09/02 11:28:06;;;;;;;588.93;218.73;;;23.40;99.90;;;;;;4840790;29;20060;-87
2023/09/02 11:30:39;;;;;;;613.70;219.27;;;23.10;99.90;;;;;;4840865;29;20065;-87
2023/09/02 11:33:09;;;;;;;708.13;228.40;;;23.00;99.90;;;;;;4810289;29;20137;-87
2023/09/02 11:35:36;;;;;;;763.07;227.93;;;22.70;99.90;;;;;;4825506;29;20128;-86
2023/09/02 11:38:16;;;;;;;769.03;227.67;;;22.60;99.90;;;;;;4825578;29;20137;-86
2023/09/02 11:40:42;;;;;;;765.27;225.30;;;22.50;99.90;;;;;;4825860;29;20087;-86
2023/09/02 11:43:08;;;;;;;771.50;227.03;;;22.40;99.90;;;;;;4825464;29;20066;-86
2023/09/02 11:45:39;;;;;;;763.43;226.23;;;22.50;99.90;;;;;;4825492;29;20061;-89
2023/09/02 11:48:06;;;;;;;759.77;225.60;;;22.60;99.90;;;;;;4856721;29;20228;-88
2023/09/02 11:50:32;;;;;;;752.73;223.97;;;22.80;99.90;;;;;;4933941;29;20058;-86
2023/09/02 11:52:58;;;;;;;756.37;222.37;;;22.80;99.90;;;;;;4918473;29;20407;-86
2023/09/02 11:55:25;;;;;;;759.03;225.47;;;22.90;99.90;;;;;;4933870;28;20130;-88
2023/09/02 11:57:52;;;;;;;752.83;223.30;;;23.10;99.90;;;;;;4918294;29;20055;-87
2023/09/02 12:00:22;;;;;;;751.10;225.00;;;23.20;99.90;;;;;;4918101;29;20135;-88
2023/09/02 12:02:50;;;;;;;748.53;223.03;;;23.30;99.90;;;;;;4973327;28;20062;-86
2023/09/02 12:05:16;;;;;;;755.80;224.83;;;23.30;99.90;;;;;;4975977;28;20085;-87
2023/09/02 12:07:44;;;;;;;745.10;223.13;;;23.30;99.90;;;;;;4993886;28;20046;-88
2023/09/02 12:10:10;;;;;;;753.83;223.97;;;23.20;99.90;;;;;;4993553;28;20057;-88
2023/09/02 12:12:42;;;;;;;747.30;224.63;;;23.30;99.90;;;;;;4960056;28;20101;-87
2023/09/02 12:15:18;;;;;;;759.97;224.80;;;23.20;99.90;;;;;;4993577;28;20046;-88
2023/09/02 12:17:46;;;;;;;760.87;225.37;;;23.30;99.90;;;;;;4994245;28;20450;-85
2023/09/02 12:20:13;;;;;;;758.87;224.23;;;23.30;99.90;;;;;;4976423;28;20093;-86
2023/09/02 12:22:41;;;;;;;756.73;223.83;;;23.50;99.90;;;;;;4976699;28;20043;-86
2023/09/02 12:25:22;;;;;;;759.10;224.97;;;23.50;99.90;;;;;;4993376;28;20042;-85
2023/09/02 12:27:51;;;;;;;756.23;224.13;;;23.70;99.90;;;;;;4959919;28;20042;-86
2023/09/02 12:30:32;;;;;;;754.07;224.07;;;23.70;99.90;;;;;;4992377;28;20038;-87
2023/09/02 12:32:58;;;;;;;757.40;225.43;;;23.50;99.90;;;;;;4993378;28;20046;-87
2023/09/02 12:35:25;;;;;;;744.73;223.77;;;23.30;99.90;;;;;;4975184;28;20050;-84
2023/09/02 12:38:04;;;;;;;738.83;223.07;;;23.40;99.90;;;;;;4976084;28;20437;-86
2023/09/02 12:40:30;;;;;;;738.93;223.40;;;23.40;99.90;;;;;;4976003;28;20101;-87
2023/09/02 12:42:57;;;;;;;738.60;223.07;;;23.40;99.90;;;;;;4994800;28;20054;-87
2023/09/02 12:45:31;;;;;;;726.63;221.07;;;23.40;99.90;;;;;;4995120;28;20073;-92
2023/09/02 12:47:58;;;;;;;725.27;223.53;;;23.60;99.90;;;;;;4990683;28;20065;-89
2023/09/02 12:50:25;;;;;;;725.10;221.53;;;23.60;99.90;;;;;;5013097;28;20042;-87
2023/09/02 12:52:55;;;;;;;716.97;222.87;;;23.70;99.90;;;;;;4995334;28;20046;-89
2023/09/02 12:55:21;;;;;;;755.87;223.23;;;23.80;99.90;;;;;;4995134;28;20096;-89
2023/09/02 12:57:48;;;;;;;770.33;221.30;;;23.60;99.90;;;;;;5012900;28;20089;-88
2023/09/02 13:00:14;;;;;;;768.27;220.47;;;23.70;99.90;;;;;;5012950;28;20096;-86
2023/09/02 13:02:40;;;;;;;763.37;220.07;;;23.70;99.90;;;;;;5012397;28;20096;-89
2023/09/02 13:05:06;;;;;;;754.67;219.73;;;23.60;99.90;;;;;;5012729;28;20136;-90
2023/09/02 13:07:32;;;;;;;743.87;220.07;;;23.60;99.90;;;;;;4995230;28;20053;-88
2023/09/02 13:09:58;;;;;;;746.67;218.97;;;23.50;99.90;;;;;;5012740;28;20410;-87
2023/09/02 13:12:26;;;;;;;749.37;217.93;;;23.60;99.90;;;;;;4995608;28;20057;-88
2023/09/02 13:14:51;;;;;;;749.07;220.93;;;23.60;99.90;;;;;;4995091;28;20506;-88
2023/09/02 13:17:18;;;;;;;742.67;219.70;;;23.50;99.90;;;;;;4995255;28;20132;-89
2023/09/02 13:19:47;;;;;;;762.33;222.23;;;23.50;99.90;;;;;;4995462;28;20138;-86
2023/09/02 13:22:14;;;;;;;751.43;219.63;;;23.70;99.90;;;;;;4996590;28;20038;-89
2023/09/02 13:24:40;;;;;;;766.33;220.40;;;23.70;99.90;;;;;;4998666;28;20564;-87
2023/09/02 13:27:05;;;;;;;758.50;220.97;;;23.60;99.90;;;;;;4998531;28;20042;-86
2023/09/02 13:29:32;;;;;;;750.43;219.70;;;23.90;99.90;;;;;;5016449;28;20050;-85
2023/09/02 13:32:07;;;;;;;751.47;219.00;;;23.90;99.90;;;;;;4998799;28;20050;-86
2023/09/02 13:34:34;;;;;;;;;;;23.80;99.90;;;;;;4982797;28;20490;-86
2023/09/02 13:37:25;;;;;;;752.37;221.13;;;23.70;99.90;;;;;;4998143;28;19932;-86
2023/09/02 13:40:15;;;;;;;774.90;221.07;;;23.80;99.90;;;;;;4998833;28;20438;-87
2023/09/02 13:42:45;;;;;;;765.33;219.20;;;23.70;99.90;;;;;;4998688;28;20093;-86
2023/09/02 13:45:29;;;;;;;755.60;218.77;;;23.70;99.90;;;;;;5015981;28;20046;-86
2023/09/02 13:47:56;;;;;;;770.50;219.38;;;23.60;99.90;;;;;;5015818;28;20111;-85
2023/09/02 13:50:23;;;;;;;741.80;217.40;;;23.60;99.90;;;;;;5015900;28;20053;-85
2023/09/02 13:52:54;;;;;;;747.27;217.93;;;23.70;99.90;;;;;;5015866;28;20052;-87
2023/09/02 13:55:22;;;;;;;745.83;218.00;;;24.00;99.90;;;;;;4981946;28;20046;-86
2023/09/02 13:57:48;;;;;;;732.53;217.00;;;24.10;99.90;;;;;;5015674;28;20080;-84
2023/09/02 14:00:21;;;;;;;747.33;220.97;;;24.30;99.90;;;;;;4997972;28;20041;-87
2023/09/02 14:02:46;;;;;;;717.07;217.30;;;24.10;99.50;;;;;;5015690;28;20439;-84